sensor_id;sensor_type;location;lat;lon;timestamp;temperature;humidity
1225;DHT22;602;48.000;7.840;2023-03-05T00:01:58;3.40;99.90
1225;DHT22;602;48.000;7.840;2023-03-05T00:04:24;3.40;99.90
1225;DHT22;602;48.000;7.840;2023-03-05T00:06:52;3.40;99.90
1225;DHT22;602;48.000;7.840;2023-03-05T00:09:20;3.30;99.90
1225;DHT22;602;48.000;7.840;2023-03-05T00:11:47;3.20;99.90
1225;DHT22;602;48.000;7.840;2023-03-05T00:14:13;3.20;99.90
1225;DHT22;602;48.000;7.840;2023-03-05T00:16:42;3.20;99.90
1225;DHT22;602;48.000;7.840;2023-03-05T00:19:09;3.20;99.90
1225;DHT22;602;48.000;7.840;2023-03-05T00:21:38;3.30;99.90
1225;DHT22;602;48.000;7.840;2023-03-05T00:24:07;3.40;99.90
1225;DHT22;602;48.000;7.840;2023-03-05T00:26:37;3.40;99.90
1225;DHT22;602;48.000;7.840;2023-03-05T00:29:05;3.30;99.90
1225;DHT22;602;48.000;7.840;2023-03-05T00:31:35;3.30;99.90
1225;DHT22;602;48.000;7.840;2023-03-05T00:34:05;3.40;99.90
1225;DHT22;602;48.000;7.840;2023-03-05T00:36:33;3.30;99.90
1225;DHT22;602;48.000;7.840;2023-03-05T00:39:00;3.40;99.90
1225;DHT22;602;48.000;7.840;2023-03-05T00:41:27;3.40;99.90
1225;DHT22;602;48.000;7.840;2023-03-05T00:43:54;3.40;99.90
1225;DHT22;602;48.000;7.840;2023-03-05T00:46:21;3.40;99.90
1225;DHT22;602;48.000;7.840;2023-03-05T00:48:48;3.20;99.90
1225;DHT22;602;48.000;7.840;2023-03-05T00:51:17;3.10;99.90
1225;DHT22;602;48.000;7.840;2023-03-05T00:53:43;3.00;99.90
1225;DHT22;602;48.000;7.840;2023-03-05T00:56:10;3.00;99.90
1225;DHT22;602;48.000;7.840;2023-03-05T00:58:37;3.00;99.90
1225;DHT22;602;48.000;7.840;2023-03-05T01:01:05;2.90;99.90
1225;DHT22;602;48.000;7.840;2023-03-05T01:03:33;2.90;99.90
1225;DHT22;602;48.000;7.840;2023-03-05T01:06:03;2.90;99.90
1225;DHT22;602;48.000;7.840;2023-03-05T01:08:33;2.90;99.90
1225;DHT22;602;48.000;7.840;2023-03-05T01:11:00;2.80;99.90
1225;DHT22;602;48.000;7.840;2023-03-05T01:13:27;2.90;99.90
1225;DHT22;602;48.000;7.840;2023-03-05T01:15:54;2.80;99.90
1225;DHT22;602;48.000;7.840;2023-03-05T01:18:21;2.80;99.90
1225;DHT22;602;48.000;7.840;2023-03-05T01:20:48;2.80;99.90
1225;DHT22;602;48.000;7.840;2023-03-05T01:23:15;2.80;99.90
1225;DHT22;602;48.000;7.840;2023-03-05T01:25:43;2.70;99.90
1225;DHT22;602;48.000;7.840;2023-03-05T01:28:10;2.70;99.90
1225;DHT22;602;48.000;7.840;2023-03-05T01:30:37;2.80;99.90
1225;DHT22;602;48.000;7.840;2023-03-05T01:33:04;2.70;99.90
1225;DHT22;602;48.000;7.840;2023-03-05T01:35:31;2.40;99.90
1225;DHT22;602;48.000;7.840;2023-03-05T01:37:58;2.40;99.90
1225;DHT22;602;48.000;7.840;2023-03-05T01:40:26;2.50;99.90
1225;DHT22;602;48.000;7.840;2023-03-05T01:42:59;2.40;99.90
1225;DHT22;602;48.000;7.840;2023-03-05T01:45:30;2.50;99.90
1225;DHT22;602;48.000;7.840;2023-03-05T01:47:57;2.40;99.90
1225;DHT22;602;48.000;7.840;2023-03-05T01:50:25;2.40;99.90
1225;DHT22;602;48.000;7.840;2023-03-05T01:52:58;2.50;99.90
1225;DHT22;602;48.000;7.840;2023-03-05T01:55:28;2.70;99.90
1225;DHT22;602;48.000;7.840;2023-03-05T01:58:00;2.70;99.90
1225;DHT22;602;48.000;7.840;2023-03-05T02:00:31;2.80;99.90
1225;DHT22;602;48.000;7.840;2023-03-05T02:03:02;2.80;99.90
1225;DHT22;602;48.000;7.840;2023-03-05T02:05:32;2.70;99.90
1225;DHT22;602;48.000;7.840;2023-03-05T02:08:01;2.80;99.90
1225;DHT22;602;48.000;7.840;2023-03-05T02:10:30;2.70;99.90
1225;DHT22;602;48.000;7.840;2023-03-05T02:13:01;2.70;99.90
1225;DHT22;602;48.000;7.840;2023-03-05T02:15:28;2.60;99.90
1225;DHT22;602;48.000;7.840;2023-03-05T02:17:55;2.50;99.90
1225;DHT22;602;48.000;7.840;2023-03-05T02:20:24;2.40;99.90
1225;DHT22;602;48.000;7.840;2023-03-05T02:22:53;2.40;99.90
1225;DHT22;602;48.000;7.840;2023-03-05T02:25:22;2.50;99.90
1225;DHT22;602;48.000;7.840;2023-03-05T02:27:53;2.50;99.90
1225;DHT22;602;48.000;7.840;2023-03-05T02:30:21;2.50;99.90
1225;DHT22;602;48.000;7.840;2023-03-05T02:32:47;2.50;99.90
1225;DHT22;602;48.000;7.840;2023-03-05T02:35:14;2.60;99.90
1225;DHT22;602;48.000;7.840;2023-03-05T02:37:41;2.70;99.90
1225;DHT22;602;48.000;7.840;2023-03-05T02:40:11;2.50;99.90
1225;DHT22;602;48.000;7.840;2023-03-05T02:42:39;2.60;99.90
1225;DHT22;602;48.000;7.840;2023-03-05T02:45:07;2.60;99.90
1225;DHT22;602;48.000;7.840;2023-03-05T02:47:34;2.50;99.90
1225;DHT22;602;48.000;7.840;2023-03-05T02:50:01;2.50;99.90
1225;DHT22;602;48.000;7.840;2023-03-05T02:52:28;2.60;99.90
1225;DHT22;602;48.000;7.840;2023-03-05T02:54:56;2.60;99.90
1225;DHT22;602;48.000;7.840;2023-03-05T02:57:24;2.60;99.90
1225;DHT22;602;48.000;7.840;2023-03-05T02:59:51;2.60;99.90
1225;DHT22;602;48.000;7.840;2023-03-05T03:02:18;2.70;99.90
1225;DHT22;602;48.000;7.840;2023-03-05T03:04:45;2.70;99.90
1225;DHT22;602;48.000;7.840;2023-03-05T03:07:12;2.70;99.90
1225;DHT22;602;48.000;7.840;2023-03-05T03:09:40;2.70;99.90
1225;DHT22;602;48.000;7.840;2023-03-05T03:12:08;2.70;99.90
1225;DHT22;602;48.000;7.840;2023-03-05T03:14:38;2.70;99.90
1225;DHT22;602;48.000;7.840;2023-03-05T03:17:06;2.70;99.90
1225;DHT22;602;48.000;7.840;2023-03-05T03:19:34;2.70;99.90
1225;DHT22;602;48.000;7.840;2023-03-05T03:22:01;2.70;99.90
1225;DHT22;602;48.000;7.840;2023-03-05T03:24:28;2.70;99.90
1225;DHT22;602;48.000;7.840;2023-03-05T03:26:55;2.70;99.90
1225;DHT22;602;48.000;7.840;2023-03-05T03:29:22;2.70;99.90
1225;DHT22;602;48.000;7.840;2023-03-05T03:31:50;2.60;99.90
1225;DHT22;602;48.000;7.840;2023-03-05T03:34:18;2.60;99.90
1225;DHT22;602;48.000;7.840;2023-03-05T03:36:46;2.60;99.90
1225;DHT22;602;48.000;7.840;2023-03-05T03:39:14;2.50;99.90
1225;DHT22;602;48.000;7.840;2023-03-05T03:41:43;2.50;99.90
1225;DHT22;602;48.000;7.840;2023-03-05T03:44:11;2.40;99.90
1225;DHT22;602;48.000;7.840;2023-03-05T03:46:38;2.30;99.90
1225;DHT22;602;48.000;7.840;2023-03-05T03:49:11;2.30;99.90
1225;DHT22;602;48.000;7.840;2023-03-05T03:51:39;2.30;99.90
1225;DHT22;602;48.000;7.840;2023-03-05T03:54:06;2.40;99.90
1225;DHT22;602;48.000;7.840;2023-03-05T03:56:33;2.40;99.90
1225;DHT22;602;48.000;7.840;2023-03-05T03:59:00;2.30;99.90
1225;DHT22;602;48.000;7.840;2023-03-05T04:01:26;2.30;99.90
1225;DHT22;602;48.000;7.840;2023-03-05T04:03:53;2.40;99.90
1225;DHT22;602;48.000;7.840;2023-03-05T04:06:22;2.40;99.90
1225;DHT22;602;48.000;7.840;2023-03-05T04:08:49;2.30;99.90
1225;DHT22;602;48.000;7.840;2023-03-05T04:11:15;2.30;99.90
1225;DHT22;602;48.000;7.840;2023-03-05T04:13:43;2.20;99.90
1225;DHT22;602;48.000;7.840;2023-03-05T04:16:10;2.10;99.90
1225;DHT22;602;48.000;7.840;2023-03-05T04:18:37;2.10;99.90
1225;DHT22;602;48.000;7.840;2023-03-05T04:21:04;2.20;99.90
1225;DHT22;602;48.000;7.840;2023-03-05T04:23:33;2.20;99.90
1225;DHT22;602;48.000;7.840;2023-03-05T04:26:00;2.20;99.90
1225;DHT22;602;48.000;7.840;2023-03-05T04:28:27;2.20;99.90
1225;DHT22;602;48.000;7.840;2023-03-05T04:30:53;2.00;99.90
1225;DHT22;602;48.000;7.840;2023-03-05T04:33:20;2.10;99.90
1225;DHT22;602;48.000;7.840;2023-03-05T04:35:47;2.20;99.90
1225;DHT22;602;48.000;7.840;2023-03-05T04:38:14;2.20;99.90
1225;DHT22;602;48.000;7.840;2023-03-05T04:40:43;2.40;99.90
1225;DHT22;602;48.000;7.840;2023-03-05T04:43:10;2.40;99.90
1225;DHT22;602;48.000;7.840;2023-03-05T04:45:39;2.40;99.90
1225;DHT22;602;48.000;7.840;2023-03-05T04:48:06;2.40;99.90
1225;DHT22;602;48.000;7.840;2023-03-05T04:50:33;2.30;99.90
1225;DHT22;602;48.000;7.840;2023-03-05T04:53:00;2.20;99.90
1225;DHT22;602;48.000;7.840;2023-03-05T04:55:27;2.30;99.90
1225;DHT22;602;48.000;7.840;2023-03-05T04:57:55;2.40;99.90
1225;DHT22;602;48.000;7.840;2023-03-05T05:00:23;2.40;99.90
1225;DHT22;602;48.000;7.840;2023-03-05T05:02:50;2.30;99.90
1225;DHT22;602;48.000;7.840;2023-03-05T05:05:20;2.30;99.90
1225;DHT22;602;48.000;7.840;2023-03-05T05:07:46;2.30;99.90
1225;DHT22;602;48.000;7.840;2023-03-05T05:10:14;2.30;99.90
1225;DHT22;602;48.000;7.840;2023-03-05T05:12:41;2.30;99.90
1225;DHT22;602;48.000;7.840;2023-03-05T05:15:11;2.30;99.90
1225;DHT22;602;48.000;7.840;2023-03-05T05:17:39;2.40;99.90
1225;DHT22;602;48.000;7.840;2023-03-05T05:20:09;2.40;99.90
1225;DHT22;602;48.000;7.840;2023-03-05T05:22:36;2.30;99.90
1225;DHT22;602;48.000;7.840;2023-03-05T05:25:04;2.40;99.90
1225;DHT22;602;48.000;7.840;2023-03-05T05:27:31;2.40;99.90
1225;DHT22;602;48.000;7.840;2023-03-05T05:29:58;2.30;99.90
1225;DHT22;602;48.000;7.840;2023-03-05T05:32:26;2.30;99.90
1225;DHT22;602;48.000;7.840;2023-03-05T05:34:53;2.40;99.90
1225;DHT22;602;48.000;7.840;2023-03-05T05:37:20;2.40;99.90
1225;DHT22;602;48.000;7.840;2023-03-05T05:39:48;2.50;99.90
1225;DHT22;602;48.000;7.840;2023-03-05T05:42:16;2.50;99.90
1225;DHT22;602;48.000;7.840;2023-03-05T05:44:43;2.60;99.90
1225;DHT22;602;48.000;7.840;2023-03-05T05:47:10;2.70;99.90
1225;DHT22;602;48.000;7.840;2023-03-05T05:49:38;2.60;99.90
1225;DHT22;602;48.000;7.840;2023-03-05T05:52:05;2.60;99.90
1225;DHT22;602;48.000;7.840;2023-03-05T05:54:32;2.70;99.90
1225;DHT22;602;48.000;7.840;2023-03-05T05:56:59;2.70;99.90
1225;DHT22;602;48.000;7.840;2023-03-05T05:59:26;2.70;99.90
1225;DHT22;602;48.000;7.840;2023-03-05T06:01:53;2.70;99.90
1225;DHT22;602;48.000;7.840;2023-03-05T06:04:20;2.80;99.90
1225;DHT22;602;48.000;7.840;2023-03-05T06:06:48;2.70;99.90
1225;DHT22;602;48.000;7.840;2023-03-05T06:09:15;2.60;99.90
1225;DHT22;602;48.000;7.840;2023-03-05T06:11:42;2.60;99.90
1225;DHT22;602;48.000;7.840;2023-03-05T06:14:10;2.70;99.90
1225;DHT22;602;48.000;7.840;2023-03-05T06:16:38;2.60;99.90
1225;DHT22;602;48.000;7.840;2023-03-05T06:19:05;2.70;99.90
1225;DHT22;602;48.000;7.840;2023-03-05T06:21:32;2.80;99.90
1225;DHT22;602;48.000;7.840;2023-03-05T06:24:00;2.90;99.90
1225;DHT22;602;48.000;7.840;2023-03-05T06:26:27;3.10;99.90
1225;DHT22;602;48.000;7.840;2023-03-05T06:28:54;3.20;99.90
1225;DHT22;602;48.000;7.840;2023-03-05T06:31:23;3.10;99.90
1225;DHT22;602;48.000;7.840;2023-03-05T06:33:51;3.20;99.90
1225;DHT22;602;48.000;7.840;2023-03-05T06:36:19;3.30;99.90
1225;DHT22;602;48.000;7.840;2023-03-05T06:38:47;3.30;99.90
1225;DHT22;602;48.000;7.840;2023-03-05T06:41:18;3.40;99.90
1225;DHT22;602;48.000;7.840;2023-03-05T06:43:47;3.30;99.90
1225;DHT22;602;48.000;7.840;2023-03-05T06:46:19;3.30;99.90
1225;DHT22;602;48.000;7.840;2023-03-05T06:48:46;3.40;99.90
1225;DHT22;602;48.000;7.840;2023-03-05T06:51:14;3.50;99.90
1225;DHT22;602;48.000;7.840;2023-03-05T06:53:41;3.60;99.90
1225;DHT22;602;48.000;7.840;2023-03-05T06:56:09;3.60;99.90
1225;DHT22;602;48.000;7.840;2023-03-05T06:58:37;3.70;99.90
1225;DHT22;602;48.000;7.840;2023-03-05T07:01:04;3.80;99.90
1225;DHT22;602;48.000;7.840;2023-03-05T07:03:31;3.90;99.90
1225;DHT22;602;48.000;7.840;2023-03-05T07:06:01;4.00;99.90
1225;DHT22;602;48.000;7.840;2023-03-05T07:08:28;4.10;99.90
1225;DHT22;602;48.000;7.840;2023-03-05T07:10:55;4.10;99.90
1225;DHT22;602;48.000;7.840;2023-03-05T07:13:22;4.00;99.90
1225;DHT22;602;48.000;7.840;2023-03-05T07:15:50;3.90;99.90
1225;DHT22;602;48.000;7.840;2023-03-05T07:18:17;4.00;99.90
1225;DHT22;602;48.000;7.840;2023-03-05T07:20:44;4.00;99.90
1225;DHT22;602;48.000;7.840;2023-03-05T07:23:11;4.00;99.90
1225;DHT22;602;48.000;7.840;2023-03-05T07:25:38;4.20;99.90
1225;DHT22;602;48.000;7.840;2023-03-05T07:28:05;4.20;99.90
1225;DHT22;602;48.000;7.840;2023-03-05T07:30:32;4.20;99.90
1225;DHT22;602;48.000;7.840;2023-03-05T07:33:01;4.20;99.90
1225;DHT22;602;48.000;7.840;2023-03-05T07:35:28;4.30;99.90
1225;DHT22;602;48.000;7.840;2023-03-05T07:37:54;4.30;99.90
1225;DHT22;602;48.000;7.840;2023-03-05T07:40:21;4.30;99.90
1225;DHT22;602;48.000;7.840;2023-03-05T07:42:48;4.30;99.90
1225;DHT22;602;48.000;7.840;2023-03-05T07:45:15;4.10;99.90
1225;DHT22;602;48.000;7.840;2023-03-05T07:47:42;4.10;99.90
1225;DHT22;602;48.000;7.840;2023-03-05T07:50:11;4.10;99.90
1225;DHT22;602;48.000;7.840;2023-03-05T07:52:37;4.00;99.90
1225;DHT22;602;48.000;7.840;2023-03-05T07:55:05;4.10;99.90
1225;DHT22;602;48.000;7.840;2023-03-05T07:57:31;4.20;99.90
1225;DHT22;602;48.000;7.840;2023-03-05T08:00:00;4.00;99.90
1225;DHT22;602;48.000;7.840;2023-03-05T08:02:26;4.00;99.90
1225;DHT22;602;48.000;7.840;2023-03-05T08:04:54;4.00;99.90
1225;DHT22;602;48.000;7.840;2023-03-05T08:07:22;3.90;99.90
1225;DHT22;602;48.000;7.840;2023-03-05T08:09:49;3.80;99.90
1225;DHT22;602;48.000;7.840;2023-03-05T08:12:16;3.90;99.90
1225;DHT22;602;48.000;7.840;2023-03-05T08:14:43;4.00;99.90
1225;DHT22;602;48.000;7.840;2023-03-05T08:17:09;4.00;99.90
1225;DHT22;602;48.000;7.840;2023-03-05T08:19:36;4.10;99.90
1225;DHT22;602;48.000;7.840;2023-03-05T08:22:03;4.30;99.90
1225;DHT22;602;48.000;7.840;2023-03-05T08:24:31;4.40;99.90
1225;DHT22;602;48.000;7.840;2023-03-05T08:26:58;4.50;99.90
1225;DHT22;602;48.000;7.840;2023-03-05T08:29:26;4.60;99.90
1225;DHT22;602;48.000;7.840;2023-03-05T08:31:53;4.70;99.90
1225;DHT22;602;48.000;7.840;2023-03-05T08:34:21;4.80;99.90
1225;DHT22;602;48.000;7.840;2023-03-05T08:36:48;4.90;99.90
1225;DHT22;602;48.000;7.840;2023-03-05T08:39:15;4.90;99.90
1225;DHT22;602;48.000;7.840;2023-03-05T08:41:43;5.00;99.90
1225;DHT22;602;48.000;7.840;2023-03-05T08:44:10;4.90;99.90
1225;DHT22;602;48.000;7.840;2023-03-05T08:46:38;4.90;99.90
1225;DHT22;602;48.000;7.840;2023-03-05T08:49:05;5.00;99.90
1225;DHT22;602;48.000;7.840;2023-03-05T08:51:33;5.10;99.90
1225;DHT22;602;48.000;7.840;2023-03-05T08:54:01;5.10;99.90
1225;DHT22;602;48.000;7.840;2023-03-05T08:56:31;5.20;99.90
1225;DHT22;602;48.000;7.840;2023-03-05T08:59:00;5.20;99.90
1225;DHT22;602;48.000;7.840;2023-03-05T09:01:27;5.20;99.90
1225;DHT22;602;48.000;7.840;2023-03-05T09:03:55;5.20;99.90
1225;DHT22;602;48.000;7.840;2023-03-05T09:06:22;5.30;99.90
1225;DHT22;602;48.000;7.840;2023-03-05T09:08:49;5.40;99.90
1225;DHT22;602;48.000;7.840;2023-03-05T09:11:16;5.20;99.90
1225;DHT22;602;48.000;7.840;2023-03-05T09:13:43;5.40;99.90
1225;DHT22;602;48.000;7.840;2023-03-05T09:16:12;5.50;99.90
1225;DHT22;602;48.000;7.840;2023-03-05T09:18:40;5.50;99.90
1225;DHT22;602;48.000;7.840;2023-03-05T09:21:09;5.40;99.90
1225;DHT22;602;48.000;7.840;2023-03-05T09:23:36;5.50;99.90
1225;DHT22;602;48.000;7.840;2023-03-05T09:26:04;5.50;99.90
1225;DHT22;602;48.000;7.840;2023-03-05T09:28:31;5.40;99.90
1225;DHT22;602;48.000;7.840;2023-03-05T09:31:01;5.30;99.90
1225;DHT22;602;48.000;7.840;2023-03-05T09:33:29;5.30;99.90
1225;DHT22;602;48.000;7.840;2023-03-05T09:35:56;5.50;99.90
1225;DHT22;602;48.000;7.840;2023-03-05T09:38:23;5.70;99.90
1225;DHT22;602;48.000;7.840;2023-03-05T09:40:54;5.70;99.90
1225;DHT22;602;48.000;7.840;2023-03-05T09:43:29;5.70;99.90
1225;DHT22;602;48.000;7.840;2023-03-05T09:46:08;5.80;99.90
1225;DHT22;602;48.000;7.840;2023-03-05T09:48:50;5.80;99.90
1225;DHT22;602;48.000;7.840;2023-03-05T09:51:21;5.80;99.90
1225;DHT22;602;48.000;7.840;2023-03-05T09:53:52;6.00;99.90
1225;DHT22;602;48.000;7.840;2023-03-05T09:56:23;6.10;99.90
1225;DHT22;602;48.000;7.840;2023-03-05T09:58:53;6.20;99.90
1225;DHT22;602;48.000;7.840;2023-03-05T10:01:24;6.20;99.90
1225;DHT22;602;48.000;7.840;2023-03-05T10:03:58;6.20;99.90
1225;DHT22;602;48.000;7.840;2023-03-05T10:06:27;6.20;99.90
1225;DHT22;602;48.000;7.840;2023-03-05T10:08:57;6.20;99.90
1225;DHT22;602;48.000;7.840;2023-03-05T10:11:48;6.30;99.90
1225;DHT22;602;48.000;7.840;2023-03-05T10:14:23;6.20;99.90
1225;DHT22;602;48.000;7.840;2023-03-05T10:20:02;6.30;99.90
1225;DHT22;602;48.000;7.840;2023-03-05T10:22:34;6.40;99.90
1225;DHT22;602;48.000;7.840;2023-03-05T10:25:15;6.40;99.90
1225;DHT22;602;48.000;7.840;2023-03-05T10:27:47;6.50;99.90
1225;DHT22;602;48.000;7.840;2023-03-05T10:30:32;6.60;99.90
1225;DHT22;602;48.000;7.840;2023-03-05T10:33:13;6.60;99.90
1225;DHT22;602;48.000;7.840;2023-03-05T10:38:56;6.50;99.90
1225;DHT22;602;48.000;7.840;2023-03-05T10:41:32;6.40;99.90
1225;DHT22;602;48.000;7.840;2023-03-05T10:44:07;6.40;99.90
1225;DHT22;602;48.000;7.840;2023-03-05T10:46:36;6.60;99.90
1225;DHT22;602;48.000;7.840;2023-03-05T10:49:11;6.70;99.90
1225;DHT22;602;48.000;7.840;2023-03-05T10:51:48;6.80;99.90
1225;DHT22;602;48.000;7.840;2023-03-05T10:54:22;7.00;99.90
1225;DHT22;602;48.000;7.840;2023-03-05T10:57:12;7.00;99.90
1225;DHT22;602;48.000;7.840;2023-03-05T10:59:45;6.90;99.90
1225;DHT22;602;48.000;7.840;2023-03-05T11:02:12;7.10;99.90
1225;DHT22;602;48.000;7.840;2023-03-05T11:04:40;7.10;99.90
1225;DHT22;602;48.000;7.840;2023-03-05T11:07:33;7.20;99.90
1225;DHT22;602;48.000;7.840;2023-03-05T11:10:12;7.50;99.90
1225;DHT22;602;48.000;7.840;2023-03-05T11:12:40;7.60;99.90
1225;DHT22;602;48.000;7.840;2023-03-05T11:15:25;7.60;99.90
1225;DHT22;602;48.000;7.840;2023-03-05T11:18:18;7.70;99.90
1225;DHT22;602;48.000;7.840;2023-03-05T11:20:46;7.80;99.90
1225;DHT22;602;48.000;7.840;2023-03-05T11:23:15;7.90;99.90
1225;DHT22;602;48.000;7.840;2023-03-05T11:25:54;7.90;99.90
1225;DHT22;602;48.000;7.840;2023-03-05T11:28:24;8.00;99.90
1225;DHT22;602;48.000;7.840;2023-03-05T11:30:56;8.00;99.90
1225;DHT22;602;48.000;7.840;2023-03-05T11:33:24;8.00;99.90
1225;DHT22;602;48.000;7.840;2023-03-05T11:35:53;8.10;99.90
1225;DHT22;602;48.000;7.840;2023-03-05T11:38:44;8.10;99.90
1225;DHT22;602;48.000;7.840;2023-03-05T11:41:12;8.30;99.90
1225;DHT22;602;48.000;7.840;2023-03-05T11:43:40;8.40;99.90
1225;DHT22;602;48.000;7.840;2023-03-05T11:46:09;8.50;99.90
1225;DHT22;602;48.000;7.840;2023-03-05T11:48:39;8.70;99.90
1225;DHT22;602;48.000;7.840;2023-03-05T11:51:12;9.00;99.90
1225;DHT22;602;48.000;7.840;2023-03-05T11:53:44;9.10;99.90
1225;DHT22;602;48.000;7.840;2023-03-05T11:56:17;9.20;99.90
1225;DHT22;602;48.000;7.840;2023-03-05T11:58:49;9.30;99.90
1225;DHT22;602;48.000;7.840;2023-03-05T12:01:18;9.60;99.90
1225;DHT22;602;48.000;7.840;2023-03-05T12:03:46;9.70;99.90
1225;DHT22;602;48.000;7.840;2023-03-05T12:06:19;9.60;99.90
1225;DHT22;602;48.000;7.840;2023-03-05T12:08:54;9.70;99.90
1225;DHT22;602;48.000;7.840;2023-03-05T12:11:25;10.00;99.90
1225;DHT22;602;48.000;7.840;2023-03-05T12:13:55;10.10;99.90
1225;DHT22;602;48.000;7.840;2023-03-05T12:16:32;10.30;99.90
1225;DHT22;602;48.000;7.840;2023-03-05T12:19:20;10.60;99.90
1225;DHT22;602;48.000;7.840;2023-03-05T12:21:50;10.70;99.90
1225;DHT22;602;48.000;7.840;2023-03-05T12:24:36;10.80;99.90
1225;DHT22;602;48.000;7.840;2023-03-05T12:27:12;10.70;99.90
1225;DHT22;602;48.000;7.840;2023-03-05T12:29:45;10.80;99.90
1225;DHT22;602;48.000;7.840;2023-03-05T12:35:25;10.90;99.90
1225;DHT22;602;48.000;7.840;2023-03-05T12:38:05;10.80;99.90
1225;DHT22;602;48.000;7.840;2023-03-05T12:40:40;10.50;99.90
1225;DHT22;602;48.000;7.840;2023-03-05T12:43:27;10.60;99.90
1225;DHT22;602;48.000;7.840;2023-03-05T12:46:21;10.70;99.90
1225;DHT22;602;48.000;7.840;2023-03-05T12:48:49;10.80;99.90
1225;DHT22;602;48.000;7.840;2023-03-05T12:51:37;10.90;99.90
1225;DHT22;602;48.000;7.840;2023-03-05T12:54:27;10.80;99.90
1225;DHT22;602;48.000;7.840;2023-03-05T12:56:56;11.00;99.90
1225;DHT22;602;48.000;7.840;2023-03-05T12:59:28;11.10;99.90
1225;DHT22;602;48.000;7.840;2023-03-05T13:02:00;11.20;99.90
1225;DHT22;602;48.000;7.840;2023-03-05T13:04:29;11.10;99.90
1225;DHT22;602;48.000;7.840;2023-03-05T13:06:59;11.20;99.90
1225;DHT22;602;48.000;7.840;2023-03-05T13:09:28;11.20;99.90
1225;DHT22;602;48.000;7.840;2023-03-05T13:11:57;11.30;99.90
1225;DHT22;602;48.000;7.840;2023-03-05T13:14:34;11.30;99.90
1225;DHT22;602;48.000;7.840;2023-03-05T13:17:19;11.30;99.90
1225;DHT22;602;48.000;7.840;2023-03-05T13:19:49;11.40;99.90
1225;DHT22;602;48.000;7.840;2023-03-05T13:22:16;11.00;99.90
1225;DHT22;602;48.000;7.840;2023-03-05T13:24:43;11.00;99.90
1225;DHT22;602;48.000;7.840;2023-03-05T13:27:24;11.00;99.90
1225;DHT22;602;48.000;7.840;2023-03-05T13:29:55;11.00;99.90
1225;DHT22;602;48.000;7.840;2023-03-05T13:32:24;11.10;99.90
1225;DHT22;602;48.000;7.840;2023-03-05T13:34:54;11.10;99.90
1225;DHT22;602;48.000;7.840;2023-03-05T13:37:24;11.10;99.90
1225;DHT22;602;48.000;7.840;2023-03-05T13:39:54;11.10;99.90
1225;DHT22;602;48.000;7.840;2023-03-05T13:42:24;11.00;99.90
1225;DHT22;602;48.000;7.840;2023-03-05T13:44:53;11.10;99.90
1225;DHT22;602;48.000;7.840;2023-03-05T13:47:22;11.20;99.90
1225;DHT22;602;48.000;7.840;2023-03-05T13:49:55;11.00;99.90
1225;DHT22;602;48.000;7.840;2023-03-05T13:52:25;11.00;99.90
1225;DHT22;602;48.000;7.840;2023-03-05T13:54:53;11.00;99.90
1225;DHT22;602;48.000;7.840;2023-03-05T13:57:46;11.00;99.90
1225;DHT22;602;48.000;7.840;2023-03-05T14:00:38;11.00;99.90
1225;DHT22;602;48.000;7.840;2023-03-05T14:03:09;10.90;99.90
1225;DHT22;602;48.000;7.840;2023-03-05T14:05:42;11.10;99.90
1225;DHT22;602;48.000;7.840;2023-03-05T14:08:19;11.20;99.90
1225;DHT22;602;48.000;7.840;2023-03-05T14:10:47;11.10;99.90
1225;DHT22;602;48.000;7.840;2023-03-05T14:13:17;11.00;99.90
1225;DHT22;602;48.000;7.840;2023-03-05T14:16:04;11.00;99.90
1225;DHT22;602;48.000;7.840;2023-03-05T14:18:31;10.90;99.90
1225;DHT22;602;48.000;7.840;2023-03-05T14:21:01;11.00;99.90
1225;DHT22;602;48.000;7.840;2023-03-05T14:23:35;11.10;99.90
1225;DHT22;602;48.000;7.840;2023-03-05T14:26:18;11.00;99.90
1225;DHT22;602;48.000;7.840;2023-03-05T14:28:51;11.00;99.90
1225;DHT22;602;48.000;7.840;2023-03-05T14:31:19;11.00;99.90
1225;DHT22;602;48.000;7.840;2023-03-05T14:33:46;11.10;99.90
1225;DHT22;602;48.000;7.840;2023-03-05T14:36:21;11.10;99.90
1225;DHT22;602;48.000;7.840;2023-03-05T14:38:49;11.20;99.90
1225;DHT22;602;48.000;7.840;2023-03-05T14:41:30;11.30;99.90
1225;DHT22;602;48.000;7.840;2023-03-05T14:43:59;11.20;99.90
1225;DHT22;602;48.000;7.840;2023-03-05T14:46:26;11.20;99.90
1225;DHT22;602;48.000;7.840;2023-03-05T14:48:53;11.20;99.90
1225;DHT22;602;48.000;7.840;2023-03-05T14:51:20;11.10;99.90
1225;DHT22;602;48.000;7.840;2023-03-05T14:53:48;11.00;99.90
1225;DHT22;602;48.000;7.840;2023-03-05T14:56:20;11.00;99.90
1225;DHT22;602;48.000;7.840;2023-03-05T14:58:48;10.90;99.90
1225;DHT22;602;48.000;7.840;2023-03-05T15:01:16;11.00;99.90
1225;DHT22;602;48.000;7.840;2023-03-05T15:03:43;11.10;99.90
1225;DHT22;602;48.000;7.840;2023-03-05T15:06:17;11.20;99.90
1225;DHT22;602;48.000;7.840;2023-03-05T15:08:44;10.90;99.90
1225;DHT22;602;48.000;7.840;2023-03-05T15:11:11;10.70;99.90
1225;DHT22;602;48.000;7.840;2023-03-05T15:13:38;10.60;99.90
1225;DHT22;602;48.000;7.840;2023-03-05T15:16:05;10.50;99.90
1225;DHT22;602;48.000;7.840;2023-03-05T15:18:34;10.50;99.90
1225;DHT22;602;48.000;7.840;2023-03-05T15:21:01;10.50;99.90
1225;DHT22;602;48.000;7.840;2023-03-05T15:23:28;10.60;99.90
1225;DHT22;602;48.000;7.840;2023-03-05T15:26:00;10.50;99.90
1225;DHT22;602;48.000;7.840;2023-03-05T15:28:31;10.50;99.90
1225;DHT22;602;48.000;7.840;2023-03-05T15:30:59;10.50;99.90
1225;DHT22;602;48.000;7.840;2023-03-05T15:33:26;10.40;99.90
1225;DHT22;602;48.000;7.840;2023-03-05T15:35:55;10.30;99.90
1225;DHT22;602;48.000;7.840;2023-03-05T15:38:22;10.30;99.90
1225;DHT22;602;48.000;7.840;2023-03-05T15:40:49;10.30;99.90
1225;DHT22;602;48.000;7.840;2023-03-05T15:43:16;10.30;99.90
1225;DHT22;602;48.000;7.840;2023-03-05T15:45:43;10.10;99.90
1225;DHT22;602;48.000;7.840;2023-03-05T15:48:10;10.00;99.90
1225;DHT22;602;48.000;7.840;2023-03-05T15:50:38;9.90;99.90
1225;DHT22;602;48.000;7.840;2023-03-05T15:53:07;10.10;99.90
1225;DHT22;602;48.000;7.840;2023-03-05T15:55:37;10.10;99.90
1225;DHT22;602;48.000;7.840;2023-03-05T15:58:05;10.20;99.90
1225;DHT22;602;48.000;7.840;2023-03-05T16:00:34;10.00;99.90
1225;DHT22;602;48.000;7.840;2023-03-05T16:03:01;9.90;99.90
1225;DHT22;602;48.000;7.840;2023-03-05T16:05:29;9.80;99.90
1225;DHT22;602;48.000;7.840;2023-03-05T16:07:55;10.00;99.90
1225;DHT22;602;48.000;7.840;2023-03-05T16:10:26;10.10;99.90
1225;DHT22;602;48.000;7.840;2023-03-05T16:12:56;10.20;99.90
1225;DHT22;602;48.000;7.840;2023-03-05T16:15:26;10.20;99.90
1225;DHT22;602;48.000;7.840;2023-03-05T16:17:54;10.10;99.90
1225;DHT22;602;48.000;7.840;2023-03-05T16:20:22;10.10;99.90
1225;DHT22;602;48.000;7.840;2023-03-05T16:22:49;10.10;99.90
1225;DHT22;602;48.000;7.840;2023-03-05T16:25:16;10.00;99.90
1225;DHT22;602;48.000;7.840;2023-03-05T16:27:44;9.90;99.90
1225;DHT22;602;48.000;7.840;2023-03-05T16:30:13;9.90;99.90
1225;DHT22;602;48.000;7.840;2023-03-05T16:32:41;9.70;99.90
1225;DHT22;602;48.000;7.840;2023-03-05T16:35:08;9.60;99.90
1225;DHT22;602;48.000;7.840;2023-03-05T16:37:36;9.60;99.90
1225;DHT22;602;48.000;7.840;2023-03-05T16:40:04;9.60;99.90
1225;DHT22;602;48.000;7.840;2023-03-05T16:42:32;9.50;99.90
1225;DHT22;602;48.000;7.840;2023-03-05T16:45:00;9.60;99.90
1225;DHT22;602;48.000;7.840;2023-03-05T16:47:27;9.50;99.90
1225;DHT22;602;48.000;7.840;2023-03-05T16:49:54;9.70;99.90
1225;DHT22;602;48.000;7.840;2023-03-05T16:52:21;9.70;99.90
1225;DHT22;602;48.000;7.840;2023-03-05T16:54:48;9.70;99.90